^^
Datos históricos de la estación: Murcia-Puente Tocinos
Diario Informe para Mayo 10, 2019 Unidades:  Ambas    Ingés   Métrico
Diario Semanal Mensual Anual
  Máxima: Mínima: Promedio:
Temperatura: 57.2 °F /  14 °C 41.9 °F /  5.5 °C 50.4 °F /  10.2 °C
Punto de rocio: 34.5 °F /  1.4 °C 26.4 °F /  -3.1 °C 30 °F /  -1.1 °C
Humedad: 69% 32% 46%
Velocidad viento: 11.8mph /  19km/h - 4.4mph /  7.1km/h
Racha viento: 20mph /  32.2km/h - -
Viento- - SO
Presión: 30.1 in /  1020.2 hPa 29.9 in /  1013.6 hPa -
Precipitación: 0 in /  0.0 mm    
 
 
Tabla de datos para Mayo 10, 2019
Hora Temperatura Punto de rocio Presión Viento Velocidad viento Racha viento Humedad Intensidad lluvia(por hora) Nubes
00:04 57.2 °F /  14 °C 27.5 °F /  -2.5 °C 29.9in /  1013.7hPa ONO 9.7mph /  15.6km/h 19.7mph /  31.7km/h 32% 0in /  0.0mm
00:09 57 °F /  13.9 °C 27.3 °F /  -2.6 °C 29.9in /  1013.6hPa ONO 10.3mph /  16.5km/h 20mph /  32.2km/h 32% 0in /  0.0mm
00:14 56.7 °F /  13.7 °C 27.1 °F /  -2.7 °C 29.9in /  1013.6hPa ONO 10.7mph /  17.2km/h 16.1mph /  25.9km/h 32% 0in /  0.0mm
00:19 56.7 °F /  13.7 °C 27 °F /  -2.8 °C 29.9in /  1013.8hPa ONO 9.4mph /  15.2km/h 16mph /  25.7km/h 32% 0in /  0.0mm
00:24 56.5 °F /  13.6 °C 26.8 °F /  -2.9 °C 29.9in /  1013.8hPa ONO 8.5mph /  13.7km/h 14mph /  22.5km/h 32% 0in /  0.0mm
00:29 56.1 °F /  13.4 °C 26.6 °F /  -3 °C 29.9in /  1013.8hPa ONO 8.5mph /  13.7km/h 14mph /  22.5km/h 32% 0in /  0.0mm
00:34 55.9 °F /  13.3 °C 26.6 °F /  -3 °C 29.9in /  1013.8hPa ONO 8.5mph /  13.7km/h 13mph /  20.9km/h 32% 0in /  0.0mm
00:39 55.8 °F /  13.2 °C 26.4 °F /  -3.1 °C 29.9in /  1013.8hPa ONO 7.3mph /  11.7km/h 13mph /  20.9km/h 32% 0in /  0.0mm
00:44 55.6 °F /  13.1 °C 26.4 °F /  -3.1 °C 29.9in /  1013.8hPa ONO 6.4mph /  10.3km/h 13mph /  20.9km/h 32.3% 0in /  0.0mm
00:49 55.2 °F /  12.9 °C 26.6 °F /  -3 °C 29.9in /  1013.9hPa ONO 6.7mph /  10.8km/h 13mph /  20.9km/h 33% 0in /  0.0mm
00:54 55 °F /  12.8 °C 26.4 °F /  -3.1 °C 29.9in /  1013.9hPa Oeste 6.9mph /  11.1km/h 13mph /  20.9km/h 33% 0in /  0.0mm
00:59 54.9 °F /  12.7 °C 26.4 °F /  -3.1 °C 29.9in /  1013.9hPa ONO 6.5mph /  10.4km/h 11.2mph /  18km/h 33.2% 0in /  0.0mm
01:04 54.7 °F /  12.6 °C 26.8 °F /  -2.9 °C 29.9in /  1014.1hPa ONO 6.2mph /  10km/h 12mph /  19.3km/h 34% 0in /  0.0mm
01:09 54.7 °F /  12.6 °C 26.8 °F /  -2.9 °C 29.9in /  1014.1hPa Oeste 6mph /  9.7km/h 12.5mph /  20.1km/h 34% 0in /  0.0mm
01:14 54.7 °F /  12.6 °C 26.8 °F /  -2.9 °C 29.9in /  1014.1hPa ONO 5.9mph /  9.5km/h 13mph /  20.9km/h 34% 0in /  0.0mm
01:19 54.9 °F /  12.7 °C 27 °F /  -2.8 °C 29.9in /  1014.1hPa ONO 6.8mph /  10.9km/h 17.3mph /  27.8km/h 34% 0in /  0.0mm
01:24 54.9 °F /  12.7 °C 27 °F /  -2.8 °C 29.9in /  1014.1hPa ONO 7.4mph /  11.9km/h 17.5mph /  28.2km/h 34% 0in /  0.0mm
01:29 54.9 °F /  12.7 °C 27 °F /  -2.8 °C 29.9in /  1014.1hPa ONO 8.7mph /  14km/h 17.3mph /  27.8km/h 34% 0in /  0.0mm
01:34 54.9 °F /  12.7 °C 27.5 °F /  -2.5 °C 29.9in /  1014.1hPa NO 9.7mph /  15.6km/h 17mph /  27.4km/h 34.8% 0in /  0.0mm
01:39 54.9 °F /  12.7 °C 27.7 °F /  -2.4 °C 29.9in /  1014.0hPa ONO 9.7mph /  15.6km/h 17.3mph /  27.8km/h 35% 0in /  0.0mm
01:44 54.9 °F /  12.7 °C 27.7 °F /  -2.4 °C 29.9in /  1014.0hPa ONO 9.7mph /  15.6km/h 19mph /  30.6km/h 35% 0in /  0.0mm
01:49 54.7 °F /  12.6 °C 28 °F /  -2.2 °C 29.9in /  1014.0hPa ONO 10.9mph /  17.6km/h 19mph /  30.6km/h 35.7% 0in /  0.0mm
01:54 54.3 °F /  12.4 °C 27.9 °F /  -2.3 °C 29.9in /  1014.0hPa ONO 11.8mph /  19km/h 16.1mph /  25.9km/h 36% 0in /  0.0mm
01:59 54.1 °F /  12.3 °C 27.7 °F /  -2.4 °C 29.9in /  1014.0hPa ONO 10.4mph /  16.8km/h 17.5mph /  28.2km/h 36% 0in /  0.0mm
02:04 54 °F /  12.2 °C 27.7 °F /  -2.4 °C 30in /  1014.2hPa ONO 9.7mph /  15.6km/h 17mph /  27.4km/h 36% 0in /  0.0mm
02:09 53.8 °F /  12.1 °C 27.7 °F /  -2.4 °C 30in /  1014.2hPa NO 8.8mph /  14.1km/h 14mph /  22.5km/h 36.4% 0in /  0.0mm
02:14 53.6 °F /  12 °C 27.9 °F /  -2.3 °C 30in /  1014.2hPa ONO 8.1mph /  13km/h 17.3mph /  27.8km/h 37% 0in /  0.0mm
02:19 53.4 °F /  11.9 °C 27.9 °F /  -2.3 °C 30in /  1014.2hPa ONO 7.7mph /  12.4km/h 17mph /  27.4km/h 37% 0in /  0.0mm
02:24 53.2 °F /  11.8 °C 27.7 °F /  -2.4 °C 30in /  1014.2hPa ONO 7.4mph /  11.9km/h 12mph /  19.3km/h 37.1% 0in /  0.0mm
02:29 53.1 °F /  11.7 °C 27.9 °F /  -2.3 °C 30in /  1014.2hPa NO 5.4mph /  8.7km/h 12mph /  19.3km/h 37.7% 0in /  0.0mm
02:34 52.9 °F /  11.6 °C 27.9 °F /  -2.3 °C 30in /  1014.3hPa ONO 4mph /  6.5km/h 7.4mph /  11.9km/h 38% 0in /  0.0mm
02:39 52.7 °F /  11.5 °C 27.7 °F /  -2.4 °C 30in /  1014.3hPa ONO 3.5mph /  5.6km/h 13.8mph /  22.2km/h 38% 0in /  0.0mm
02:44 52.5 °F /  11.4 °C 27.7 °F /  -2.4 °C 30in /  1014.3hPa ONO 3.1mph /  5km/h 14mph /  22.5km/h 38% 0in /  0.0mm
02:49 52.5 °F /  11.4 °C 27.7 °F /  -2.4 °C 30in /  1014.3hPa ONO 4.4mph /  7.1km/h 11.5mph /  18.5km/h 38% 0in /  0.0mm
02:54 52.5 °F /  11.4 °C 27.5 °F /  -2.5 °C 30in /  1014.3hPa ONO 5.4mph /  8.7km/h 12mph /  19.3km/h 38% 0in /  0.0mm
02:59 52.3 °F /  11.3 °C 27.5 °F /  -2.5 °C 30in /  1014.3hPa NO 5.7mph /  9.2km/h 12.7mph /  20.4km/h 38% 0in /  0.0mm
03:04 52.2 °F /  11.2 °C 27.5 °F /  -2.5 °C 30in /  1014.5hPa NO 5.9mph /  9.5km/h 13mph /  20.9km/h 38.4% 0in /  0.0mm
03:09 52.2 °F /  11.2 °C 27.9 °F /  -2.3 °C 30in /  1014.5hPa ONO 5.5mph /  8.9km/h 10mph /  16.1km/h 39% 0in /  0.0mm
03:14 51.8 °F /  11 °C 27.7 °F /  -2.4 °C 30in /  1014.5hPa ONO 5.2mph /  8.4km/h 8.5mph /  13.7km/h 39% 0in /  0.0mm
03:19 51.6 °F /  10.9 °C 27.5 °F /  -2.5 °C 30in /  1014.6hPa ONO 4.5mph /  7.2km/h 9mph /  14.5km/h 39% 0in /  0.0mm
03:24 51.6 °F /  10.9 °C 27.3 °F /  -2.6 °C 30in /  1014.6hPa NNO 4mph /  6.5km/h 6mph /  9.7km/h 39% 0in /  0.0mm
03:29 51.6 °F /  10.9 °C 27.3 °F /  -2.6 °C 30in /  1014.6hPa ONO 2.9mph /  4.6km/h 8.1mph /  13km/h 39% 0in /  0.0mm
03:34 51.8 °F /  11 °C 27.5 °F /  -2.5 °C 30in /  1014.7hPa ONO 2mph /  3.2km/h 9.2mph /  14.8km/h 39% 0in /  0.0mm
03:39 51.8 °F /  11 °C 27.7 °F /  -2.4 °C 30in /  1014.7hPa Oeste 3.6mph /  5.8km/h 11.8mph /  19km/h 39% 0in /  0.0mm
03:44 52 °F /  11.1 °C 27.7 °F /  -2.4 °C 30in /  1014.7hPa Oeste 4.7mph /  7.6km/h 12mph /  19.3km/h 39% 0in /  0.0mm
03:49 51.6 °F /  10.9 °C 27.5 °F /  -2.5 °C 30in /  1014.7hPa Oeste 5.4mph /  8.7km/h 9mph /  14.5km/h 39% 0in /  0.0mm
03:54 51.6 °F /  10.9 °C 27.3 °F /  -2.6 °C 30in /  1014.7hPa Oeste 5.9mph /  9.5km/h 9mph /  14.5km/h 39% 0in /  0.0mm
03:59 51.4 °F /  10.8 °C 27.3 °F /  -2.6 °C 30in /  1014.7hPa OSO 4.9mph /  7.9km/h 8.7mph /  14km/h 39% 0in /  0.0mm
04:04 51.4 °F /  10.8 °C 27.3 °F /  -2.6 °C 30in /  1014.8hPa Oeste 4.3mph /  6.9km/h 9.2mph /  14.8km/h 39% 0in /  0.0mm
04:09 51.4 °F /  10.8 °C 27.3 °F /  -2.6 °C 30in /  1014.8hPa Oeste 4.5mph /  7.3km/h 11.5mph /  18.5km/h 39% 0in /  0.0mm
04:14 51.6 °F /  10.9 °C 27.5 °F /  -2.5 °C 30in /  1014.8hPa SO 4.7mph /  7.6km/h 12mph /  19.3km/h 39.3% 0in /  0.0mm
04:19 51.4 °F /  10.8 °C 27.9 °F /  -2.3 °C 30in /  1014.9hPa Oeste 4.3mph /  6.9km/h 7mph /  11.3km/h 40% 0in /  0.0mm
04:24 51.3 °F /  10.7 °C 27.7 °F /  -2.4 °C 30in /  1014.9hPa OSO 4mph /  6.5km/h 9.2mph /  14.8km/h 40% 0in /  0.0mm
04:29 51.3 °F /  10.7 °C 28 °F /  -2.2 °C 30in /  1014.9hPa Oeste 4mph /  6.5km/h 9mph /  14.5km/h 40.5% 0in /  0.0mm
04:34 51.1 °F /  10.6 °C 28.2 °F /  -2.1 °C 30in /  1014.9hPa OSO 4mph /  6.5km/h 8.1mph /  13km/h 41% 0in /  0.0mm
04:39 50.7 °F /  10.4 °C 28 °F /  -2.2 °C 30in /  1014.9hPa OSO 4.4mph /  7.1km/h 8.1mph /  13km/h 41.4% 0in /  0.0mm
04:44 50.5 °F /  10.3 °C 28.4 °F /  -2 °C 30in /  1014.9hPa OSO 4.7mph /  7.6km/h 11.2mph /  18km/h 42% 0in /  0.0mm
04:49 50.5 °F /  10.3 °C 28.2 °F /  -2.1 °C 30in /  1014.9hPa SO 5.4mph /  8.7km/h 11mph /  17.7km/h 42% 0in /  0.0mm
04:54 50.4 °F /  10.2 °C 28.4 °F /  -2 °C 30in /  1014.9hPa SO 5.9mph /  9.5km/h 10mph /  16.1km/h 42.4% 0in /  0.0mm
04:59 50.2 °F /  10.1 °C 28.6 °F /  -1.9 °C 30in /  1014.9hPa OSO 5.6mph /  9km/h 9.7mph /  15.6km/h 43% 0in /  0.0mm
05:04 50 °F /  10 °C 28.4 °F /  -2 °C 30in /  1014.9hPa OSO 5.4mph /  8.7km/h 10mph /  16.1km/h 43% 0in /  0.0mm
05:09 49.8 °F /  9.9 °C 28.2 °F /  -2.1 °C 30in /  1014.8hPa OSO 5mph /  8km/h 8.1mph /  13km/h 43% 0in /  0.0mm
05:14 49.6 °F /  9.8 °C 28.4 °F /  -2 °C 30in /  1014.8hPa OSO 4.7mph /  7.6km/h 8.1mph /  13km/h 43.6% 0in /  0.0mm
05:19 49.6 °F /  9.8 °C 28.6 °F /  -1.9 °C 30in /  1015.0hPa OSO 4.5mph /  7.2km/h 8.1mph /  13km/h 44% 0in /  0.0mm
05:24 49.5 °F /  9.7 °C 28.4 °F /  -2 °C 30in /  1015.0hPa OSO 4.3mph /  6.9km/h 12.3mph /  19.8km/h 44% 0in /  0.0mm
05:29 49.3 °F /  9.6 °C 28.2 °F /  -2.1 °C 30in /  1015.0hPa OSO 4.8mph /  7.8km/h 13mph /  20.9km/h 44% 0in /  0.0mm
05:34 49.3 °F /  9.6 °C 28.2 °F /  -2.1 °C 30in /  1015.0hPa OSO 5.2mph /  8.4km/h 15mph /  24.1km/h 44% 0in /  0.0mm
05:39 49.3 °F /  9.6 °C 28.2 °F /  -2.1 °C 30in /  1015.0hPa OSO 4.5mph /  7.3km/h 15mph /  24.1km/h 44% 0in /  0.0mm
05:44 49.3 °F /  9.6 °C 28.2 °F /  -2.1 °C 30in /  1015.0hPa OSO 4mph /  6.5km/h 6.2mph /  10km/h 44% 0in /  0.0mm
05:49 49.3 °F /  9.6 °C 28.2 °F /  -2.1 °C 30in /  1015.2hPa OSO 3.5mph /  5.6km/h 7.6mph /  12.2km/h 44% 0in /  0.0mm
05:54 49.3 °F /  9.6 °C 28.2 °F /  -2.1 °C 30in /  1015.2hPa OSO 3.1mph /  5km/h 8.1mph /  13km/h 44% 0in /  0.0mm
05:59 49.1 °F /  9.5 °C 28.2 °F /  -2.1 °C 30in /  1015.2hPa SO 3.7mph /  5.9km/h 8mph /  12.9km/h 44.3% 0in /  0.0mm
06:04 49.3 °F /  9.6 °C 28.4 °F /  -2 °C 30in /  1015.2hPa OSO 4mph /  6.5km/h 11.8mph /  19km/h 44.1% 0in /  0.0mm
06:09 49.3 °F /  9.6 °C 28.2 °F /  -2.1 °C 30in /  1015.1hPa SO 4.4mph /  7.1km/h 12mph /  19.3km/h 44% 0in /  0.0mm
06:14 49.3 °F /  9.6 °C 28.2 °F /  -2.1 °C 30in /  1015.1hPa OSO 4.7mph /  7.6km/h 9.2mph /  14.8km/h 44% 0in /  0.0mm
06:19 49.1 °F /  9.5 °C 28.2 °F /  -2.1 °C 30in /  1015.1hPa SO 4.5mph /  7.2km/h 9mph /  14.5km/h 44.3% 0in /  0.0mm
06:24 49.1 °F /  9.5 °C 28.2 °F /  -2.1 °C 30in /  1015.0hPa OSO 4.3mph /  6.9km/h 9mph /  14.5km/h 44.3% 0in /  0.0mm
06:29 49.1 °F /  9.5 °C 28 °F /  -2.2 °C 30in /  1015.0hPa SO 4.8mph /  7.8km/h 11.8mph /  19km/h 44% 0in /  0.0mm
06:34 49.1 °F /  9.5 °C 28.2 °F /  -2.1 °C 30in /  1015.0hPa SO 5.2mph /  8.4km/h 12mph /  19.3km/h 44.2% 0in /  0.0mm
06:39 48.9 °F /  9.4 °C 28.4 °F /  -2 °C 30in /  1014.9hPa SO 4.9mph /  7.9km/h 8.1mph /  13km/h 45% 0in /  0.0mm
06:44 48.7 °F /  9.3 °C 28.4 °F /  -2 °C 30in /  1014.9hPa SO 4.7mph /  7.6km/h 7mph /  11.3km/h 45% 0in /  0.0mm
06:49 48.6 °F /  9.2 °C 28.6 °F /  -1.9 °C 30in /  1015.1hPa SO 4.3mph /  6.9km/h 7mph /  11.3km/h 45.7% 0in /  0.0mm
06:54 48.6 °F /  9.2 °C 28.6 °F /  -1.9 °C 30in /  1015.1hPa SSO 4mph /  6.5km/h 7mph /  11.3km/h 46% 0in /  0.0mm
06:59 48.2 °F /  9 °C 28.8 °F /  -1.8 °C 30in /  1015.1hPa SO 3.7mph /  6km/h 7.4mph /  11.9km/h 46.7% 0in /  0.0mm
07:04 48 °F /  8.9 °C 28.2 °F /  -2.1 °C 30in /  1015.3hPa OSO 3.6mph /  5.8km/h 10mph /  16.1km/h 46% 0in /  0.0mm
07:09 48 °F /  8.9 °C 28.6 °F /  -1.9 °C 30in /  1015.3hPa SO 3.6mph /  5.8km/h 10mph /  16.1km/h 46.6% 0in /  0.0mm
07:14 47.8 °F /  8.8 °C 28.6 °F /  -1.9 °C 30in /  1015.3hPa SO 3.6mph /  5.8km/h 6mph /  9.7km/h 47% 0in /  0.0mm
07:19 47.7 °F /  8.7 °C 28.6 °F /  -1.9 °C 30in /  1015.4hPa SO 3.6mph /  5.8km/h 6mph /  9.7km/h 47.3% 0in /  0.0mm
07:24 47.7 °F /  8.7 °C 28.4 °F /  -2 °C 30in /  1015.4hPa OSO 3.6mph /  5.8km/h 8.1mph /  13km/h 47% 0in /  0.0mm
07:29 47.5 °F /  8.6 °C 28.2 °F /  -2.1 °C 30in /  1015.4hPa Oeste 3.8mph /  6.1km/h 8mph /  12.9km/h 47.3% 0in /  0.0mm
07:34 47.1 °F /  8.4 °C 28.4 °F /  -2 °C 30in /  1015.4hPa Oeste 4mph /  6.5km/h 7mph /  11.3km/h 47.7% 0in /  0.0mm
07:39 47.1 °F /  8.4 °C 28.4 °F /  -2 °C 30in /  1015.4hPa OSO 3.5mph /  5.6km/h 7mph /  11.3km/h 48% 0in /  0.0mm
07:44 47.1 °F /  8.4 °C 28.4 °F /  -2 °C 30in /  1015.4hPa SO 3.1mph /  5km/h 7mph /  11.3km/h 48% 0in /  0.0mm
07:49 47.1 °F /  8.4 °C 28.4 °F /  -2 °C 30in /  1015.6hPa SO 3mph /  4.8km/h 6mph /  9.7km/h 48% 0in /  0.0mm
07:54 46.9 °F /  8.3 °C 28.4 °F /  -2 °C 30in /  1015.6hPa SO 2.9mph /  4.7km/h 3.5mph /  5.6km/h 48% 0in /  0.0mm
07:59 46.9 °F /  8.3 °C 28.6 °F /  -1.9 °C 30in /  1015.6hPa SO 1.1mph /  1.7km/h 3.5mph /  5.6km/h 48.6% 0in /  0.0mm
08:04 46.9 °F /  8.3 °C 28.4 °F /  -2 °C 30in /  1016.2hPa Calm   6.9mph /  11.1km/h 48.4% 0in /  0.0mm
08:09 46.9 °F /  8.3 °C 28.8 °F /  -1.8 °C 30in /  1016.2hPa OSO 1.7mph /  2.8km/h 9.2mph /  14.8km/h 49% 0in /  0.0mm
08:14 46.8 °F /  8.2 °C 28.6 °F /  -1.9 °C 30in /  1016.2hPa SO 3.1mph /  5km/h 9mph /  14.5km/h 49.2% 0in /  0.0mm
08:19 46.6 °F /  8.1 °C 28.9 °F /  -1.7 °C 30in /  1016.4hPa SO 3.8mph /  6.1km/h 8.1mph /  13km/h 50% 0in /  0.0mm
08:24 46.6 °F /  8.1 °C 28.9 °F /  -1.7 °C 30in /  1016.4hPa SO 4.3mph /  6.9km/h 8.5mph /  13.7km/h 50% 0in /  0.0mm
08:29 46.4 °F /  8 °C 28.8 °F /  -1.8 °C 30in /  1016.4hPa SO 4.9mph /  7.9km/h 9mph /  14.5km/h 50% 0in /  0.0mm
08:34 46.2 °F /  7.9 °C 28.6 °F /  -1.9 °C 30in /  1016.4hPa SO 5.4mph /  8.7km/h 9.7mph /  15.6km/h 50% 0in /  0.0mm
08:39 46 °F /  7.8 °C 28.9 °F /  -1.7 °C 30in /  1016.4hPa OSO 5.4mph /  8.7km/h 10.4mph /  16.7km/h 50.8% 0in /  0.0mm
08:44 46 °F /  7.8 °C 28.9 °F /  -1.7 °C 30in /  1016.4hPa OSO 5.4mph /  8.7km/h 10mph /  16.1km/h 51% 0in /  0.0mm
08:49 46 °F /  7.8 °C 28.9 °F /  -1.7 °C 30in /  1016.5hPa SO 5.4mph /  8.7km/h 8.1mph /  13km/h 51% 0in /  0.0mm
08:54 46 °F /  7.8 °C 28.9 °F /  -1.7 °C 30in /  1016.5hPa Sur 5.4mph /  8.7km/h 8mph /  12.9km/h 51% 0in /  0.0mm
08:59 46.2 °F /  7.9 °C 29.1 °F /  -1.6 °C 30in /  1016.5hPa Sur 4.5mph /  7.3km/h 7mph /  11.3km/h 51% 0in /  0.0mm
09:04 46.2 °F /  7.9 °C 29.1 °F /  -1.6 °C 30in /  1016.8hPa Sur 4mph /  6.5km/h 6.2mph /  10km/h 51% 0in /  0.0mm
09:09 46.2 °F /  7.9 °C 29.1 °F /  -1.6 °C 30in /  1016.8hPa Sur 3.5mph /  5.6km/h 6mph /  9.7km/h 51% 0in /  0.0mm
09:14 46.2 °F /  7.9 °C 29.1 °F /  -1.6 °C 30in /  1016.8hPa Sur 3.1mph /  5km/h 6mph /  9.7km/h 51.1% 0in /  0.0mm
09:19 46.2 °F /  7.9 °C 29.5 °F /  -1.4 °C 30in /  1017.0hPa Sur 3.7mph /  5.9km/h 6.2mph /  10km/h 52% 0in /  0.0mm
09:24 46.2 °F /  7.9 °C 29.5 °F /  -1.4 °C 30in /  1017.0hPa Sur 4mph /  6.5km/h 9.2mph /  14.8km/h 52% 0in /  0.0mm
09:29 46 °F /  7.8 °C 29.5 °F /  -1.4 °C 30in /  1017.0hPa Sur 4.8mph /  7.8km/h 9mph /  14.5km/h 52.3% 0in /  0.0mm
09:34 45.9 °F /  7.7 °C 29.7 °F /  -1.3 °C 30in /  1017.4hPa Sur 5.4mph /  8.7km/h 9.2mph /  14.8km/h 53.2% 0in /  0.0mm
09:39 45.9 °F /  7.7 °C 29.8 °F /  -1.2 °C 30in /  1017.4hPa SSO 5.4mph /  8.7km/h 9.2mph /  14.8km/h 53.5% 0in /  0.0mm
09:44 46 °F /  7.8 °C 29.7 °F /  -1.3 °C 30in /  1017.4hPa SSO 5.4mph /  8.7km/h 9.7mph /  15.6km/h 52.4% 0in /  0.0mm
09:49 46.4 °F /  8 °C 29.7 °F /  -1.3 °C 30.1in /  1017.7hPa SSO 5.4mph /  8.7km/h 10mph /  16.1km/h 52% 0in /  0.0mm
09:54 46.6 °F /  8.1 °C 29.8 °F /  -1.2 °C 30.1in /  1017.7hPa Sur 5.4mph /  8.7km/h 9.7mph /  15.6km/h 51.8% 0in /  0.0mm
09:59 46.8 °F /  8.2 °C 29.7 °F /  -1.3 °C 30.1in /  1017.7hPa SSO 5.4mph /  8.7km/h 10mph /  16.1km/h 51.5% 0in /  0.0mm
10:04 46.9 °F /  8.3 °C 29.7 °F /  -1.3 °C 30.1in /  1017.7hPa SO 5.4mph /  8.7km/h 9.2mph /  14.8km/h 51% 0in /  0.0mm
10:09 47.1 °F /  8.4 °C 29.8 °F /  -1.2 °C 30.1in /  1017.7hPa SO 5.7mph /  9.2km/h 10.4mph /  16.7km/h 51% 0in /  0.0mm
10:14 47.1 °F /  8.4 °C 29.7 °F /  -1.3 °C 30.1in /  1017.7hPa SO 5.9mph /  9.5km/h 10.4mph /  16.7km/h 50.6% 0in /  0.0mm
10:19 47.3 °F /  8.5 °C 29.5 °F /  -1.4 °C 30.1in /  1018.1hPa SO 5.6mph /  9km/h 11.5mph /  18.5km/h 49.7% 0in /  0.0mm
10:24 47.7 °F /  8.7 °C 29.5 °F /  -1.4 °C 30.1in /  1018.1hPa SO 5.4mph /  8.7km/h 12mph /  19.3km/h 49.1% 0in /  0.0mm
10:29 47.8 °F /  8.8 °C 29.5 °F /  -1.4 °C 30.1in /  1018.1hPa SO 6.3mph /  10.1km/h 13.8mph /  22.2km/h 49% 0in /  0.0mm
10:34 48 °F /  8.9 °C 29.7 °F /  -1.3 °C 30.1in /  1018.3hPa OSO 6.9mph /  11.1km/h 14mph /  22.5km/h 49% 0in /  0.0mm
10:39 48.2 °F /  9 °C 30 °F /  -1.1 °C 30.1in /  1018.3hPa SO 6.1mph /  9.8km/h 11.5mph /  18.5km/h 49.1% 0in /  0.0mm
10:44 48.4 °F /  9.1 °C 30.2 °F /  -1 °C 30.1in /  1018.3hPa OSO 5.4mph /  8.7km/h 12mph /  19.3km/h 49.1% 0in /  0.0mm
10:49 48.7 °F /  9.3 °C 30.2 °F /  -1 °C 30.1in /  1018.3hPa OSO 4.3mph /  7km/h 7mph /  11.3km/h 48.6% 0in /  0.0mm
10:54 48.9 °F /  9.4 °C 30 °F /  -1.1 °C 30.1in /  1018.3hPa SO 3.6mph /  5.8km/h 7mph /  11.3km/h 47.7% 0in /  0.0mm
10:59 48.9 °F /  9.4 °C 29.8 °F /  -1.2 °C 30.1in /  1018.3hPa SO 3.6mph /  5.8km/h 7mph /  11.3km/h 47.4% 0in /  0.0mm
11:04 48.9 °F /  9.4 °C 29.3 °F /  -1.5 °C 30.1in /  1018.3hPa SO 3.6mph /  5.8km/h 10.7mph /  17.2km/h 46.4% 0in /  0.0mm
11:09 49.1 °F /  9.5 °C 29.3 °F /  -1.5 °C 30.1in /  1018.3hPa OSO 4mph /  6.4km/h 11mph /  17.7km/h 46% 0in /  0.0mm
11:14 49.3 °F /  9.6 °C 29.3 °F /  -1.5 °C 30.1in /  1018.3hPa OSO 4.3mph /  6.9km/h 8.1mph /  13km/h 46% 0in /  0.0mm
11:19 49.5 °F /  9.7 °C 29.1 °F /  -1.6 °C 30.1in /  1018.6hPa OSO 4.8mph /  7.8km/h 8mph /  12.9km/h 45.4% 0in /  0.0mm
11:24 49.5 °F /  9.7 °C 28.9 °F /  -1.7 °C 30.1in /  1018.6hPa SO 5.2mph /  8.4km/h 8.1mph /  13km/h 45% 0in /  0.0mm
11:29 49.5 °F /  9.7 °C 29.1 °F /  -1.6 °C 30.1in /  1018.6hPa SO 4.7mph /  7.6km/h 8.1mph /  13km/h 45% 0in /  0.0mm
11:34 49.6 °F /  9.8 °C 29.1 °F /  -1.6 °C 30.1in /  1018.6hPa OSO 4.3mph /  6.9km/h 8mph /  12.9km/h 45% 0in /  0.0mm
11:39 49.6 °F /  9.8 °C 29.1 °F /  -1.6 °C 30.1in /  1018.6hPa OSO 4.1mph /  6.6km/h 7mph /  11.3km/h 44.9% 0in /  0.0mm
11:44 50 °F /  10 °C 29.1 °F /  -1.6 °C 30.1in /  1018.6hPa Oeste 4mph /  6.5km/h 10.7mph /  17.2km/h 44.4% 0in /  0.0mm
11:49 50.4 °F /  10.2 °C 29.3 °F /  -1.5 °C 30.1in /  1018.6hPa Oeste 4.4mph /  7.1km/h 11.2mph /  18km/h 44% 0in /  0.0mm
11:54 50.7 °F /  10.4 °C 29.1 °F /  -1.6 °C 30.1in /  1018.5hPa Oeste 4.7mph /  7.6km/h 12mph /  19.3km/h 43.2% 0in /  0.0mm
11:59 50.9 °F /  10.5 °C 29.1 °F /  -1.6 °C 30.1in /  1018.5hPa OSO 6.1mph /  9.8km/h 14mph /  22.5km/h 43% 0in /  0.0mm
12:04 50.9 °F /  10.5 °C 29.3 °F /  -1.5 °C 30.1in /  1018.5hPa OSO 6.9mph /  11.1km/h 14mph /  22.5km/h 43% 0in /  0.0mm
12:09 50.9 °F /  10.5 °C 29.1 °F /  -1.6 °C 30.1in /  1018.4hPa OSO 6.6mph /  10.6km/h 12mph /  19.3km/h 43% 0in /  0.0mm
12:14 51.1 °F /  10.6 °C 29.3 °F /  -1.5 °C 30.1in /  1018.4hPa Oeste 6.4mph /  10.3km/h 12.7mph /  20.4km/h 43% 0in /  0.0mm
12:19 51.4 °F /  10.8 °C 29.3 °F /  -1.5 °C 30.1in /  1018.4hPa OSO 5.8mph /  9.3km/h 13mph /  20.9km/h 42.3% 0in /  0.0mm
12:24 51.8 °F /  11 °C 29.3 °F /  -1.5 °C 30.1in /  1018.1hPa OSO 5.4mph /  8.7km/h 12mph /  19.3km/h 41.8% 0in /  0.0mm
12:29 52 °F /  11.1 °C 28.9 °F /  -1.7 °C 30.1in /  1018.1hPa Oeste 5.4mph /  8.7km/h 12.7mph /  20.4km/h 41% 0in /  0.0mm
12:34 51.8 °F /  11 °C 28.8 °F /  -1.8 °C 30.1in /  1018.1hPa Oeste 5.4mph /  8.7km/h 13mph /  20.9km/h 41% 0in /  0.0mm
12:39 52 °F /  11.1 °C 28.9 °F /  -1.7 °C 30.1in /  1018.0hPa Oeste 5.7mph /  9.2km/h 13mph /  20.9km/h 40.9% 0in /  0.0mm
12:44 52.2 °F /  11.2 °C 28.9 °F /  -1.7 °C 30.1in /  1018.0hPa ONO 5.9mph /  9.5km/h 13mph /  20.9km/h 40.7% 0in /  0.0mm
12:49 52.2 °F /  11.2 °C 28.6 °F /  -1.9 °C 30.1in /  1018.0hPa ONO 6.2mph /  10km/h 13.5mph /  21.7km/h 40% 0in /  0.0mm
12:54 52.2 °F /  11.2 °C 28.6 °F /  -1.9 °C 30.1in /  1017.5hPa Oeste 6.4mph /  10.3km/h 13mph /  20.9km/h 40% 0in /  0.0mm
12:59 52.2 °F /  11.2 °C 28.9 °F /  -1.7 °C 30.1in /  1017.5hPa Oeste 7mph /  11.3km/h 13mph /  20.9km/h 40.5% 0in /  0.0mm
13:04 52.5 °F /  11.4 °C 28.9 °F /  -1.7 °C 30.1in /  1017.5hPa Oeste 7.4mph /  11.9km/h 10mph /  16.1km/h 40% 0in /  0.0mm
13:09 52.9 °F /  11.6 °C 29.1 °F /  -1.6 °C 30.1in /  1017.5hPa Oeste 6.5mph /  10.5km/h 10.4mph /  16.7km/h 40% 0in /  0.0mm
13:14 53.2 °F /  11.8 °C 29.3 °F /  -1.5 °C 30.1in /  1017.5hPa ONO 5.9mph /  9.5km/h 10mph /  16.1km/h 39.6% 0in /  0.0mm
13:19 53.6 °F /  12 °C 29.5 °F /  -1.4 °C 30.1in /  1017.5hPa NO 5.2mph /  8.3km/h 9.2mph /  14.8km/h 39.4% 0in /  0.0mm
13:24 53.8 °F /  12.1 °C 29.5 °F /  -1.4 °C 30in /  1017.2hPa ONO 4.7mph /  7.6km/h 11.5mph /  18.5km/h 39% 0in /  0.0mm
13:29 53.8 °F /  12.1 °C 29.5 °F /  -1.4 °C 30in /  1017.2hPa OSO 5.1mph /  8.2km/h 12mph /  19.3km/h 39% 0in /  0.0mm
13:34 53.8 °F /  12.1 °C 29.8 °F /  -1.2 °C 30in /  1017.2hPa Oeste 5.4mph /  8.7km/h 9mph /  14.5km/h 39.8% 0in /  0.0mm
13:39 54 °F /  12.2 °C 30.2 °F /  -1 °C 30in /  1017.1hPa OSO 5.3mph /  8.5km/h 9mph /  14.5km/h 40% 0in /  0.0mm
13:44 54.1 °F /  12.3 °C 30.4 °F /  -0.9 °C 30in /  1017.1hPa Oeste 5.2mph /  8.4km/h 11.8mph /  19km/h 40% 0in /  0.0mm
13:49 54.1 °F /  12.3 °C 30.4 °F /  -0.9 °C 30in /  1017.1hPa ONO 5.6mph /  9km/h 12mph /  19.3km/h 40% 0in /  0.0mm
13:54 54.1 °F /  12.3 °C 30 °F /  -1.1 °C 30in /  1016.9hPa NO 5.9mph /  9.5km/h 12mph /  19.3km/h 39.7% 0in /  0.0mm
13:59 54.3 °F /  12.4 °C 30.2 °F /  -1 °C 30in /  1016.9hPa Oeste 5.5mph /  8.8km/h 10mph /  16.1km/h 39.5% 0in /  0.0mm
14:04 54.7 °F /  12.6 °C 30.7 °F /  -0.7 °C 30in /  1016.9hPa Oeste 5.2mph /  8.4km/h 11.8mph /  19km/h 40% 0in /  0.0mm
14:09 54.7 °F /  12.6 °C 30.7 °F /  -0.7 °C 30in /  1016.6hPa Oeste 5.8mph /  9.3km/h 12mph /  19.3km/h 40% 0in /  0.0mm
14:14 54.9 °F /  12.7 °C 30.2 °F /  -1 °C 30in /  1016.6hPa OSO 6.2mph /  10km/h 10.2mph /  16.4km/h 38.9% 0in /  0.0mm
14:19 54.9 °F /  12.7 °C 30 °F /  -1.1 °C 30in /  1016.6hPa SO 5.7mph /  9.2km/h 12.5mph /  20.1km/h 38.4% 0in /  0.0mm
14:24 55 °F /  12.8 °C 30.4 °F /  -0.9 °C 30in /  1016.4hPa Oeste 5.4mph /  8.7km/h 13mph /  20.9km/h 39% 0in /  0.0mm
14:29 55.2 °F /  12.9 °C 30.9 °F /  -0.6 °C 30in /  1016.4hPa NO 5.4mph /  8.7km/h 9.7mph /  15.6km/h 39.4% 0in /  0.0mm
14:34 55.2 °F /  12.9 °C 30.7 °F /  -0.7 °C 30in /  1016.4hPa ONO 5.4mph /  8.7km/h 12.7mph /  20.4km/h 39.2% 0in /  0.0mm
14:39 55 °F /  12.8 °C 30.6 °F /  -0.8 °C 30in /  1016.4hPa Oeste 5.7mph /  9.2km/h 13mph /  20.9km/h 39.2% 0in /  0.0mm
14:44 54.9 °F /  12.7 °C 30.4 °F /  -0.9 °C 30in /  1016.4hPa Oeste 5.9mph /  9.5km/h 10mph /  16.1km/h 39% 0in /  0.0mm
14:49 54.9 °F /  12.7 °C 31.1 °F /  -0.5 °C 30in /  1016.4hPa OSO 4.8mph /  7.7km/h 7mph /  11.3km/h 40% 0in /  0.0mm
14:54 55 °F /  12.8 °C 30.7 °F /  -0.7 °C 30in /  1016.3hPa OSO 4mph /  6.5km/h 6.9mph /  11.1km/h 39.4% 0in /  0.0mm
14:59 55 °F /  12.8 °C 30.6 °F /  -0.8 °C 30in /  1016.3hPa Oeste 3.4mph /  5.5km/h 9.2mph /  14.8km/h 39% 0in /  0.0mm
15:04 55 °F /  12.8 °C 29.5 °F /  -1.4 °C 30in /  1016.3hPa ONO 3.1mph /  5km/h 11.4mph /  18.3km/h 37.3% 0in /  0.0mm
15:09 55 °F /  12.8 °C 29.8 °F /  -1.2 °C 30in /  1016.2hPa Oeste 4.8mph /  7.8km/h 11mph /  17.7km/h 37.9% 0in /  0.0mm
15:14 54.9 °F /  12.7 °C 30 °F /  -1.1 °C 30in /  1016.2hPa Oeste 5.9mph /  9.5km/h 9mph /  14.5km/h 38.4% 0in /  0.0mm
15:19 55.2 °F /  12.9 °C 30.4 °F /  -0.9 °C 30in /  1016.2hPa OSO 4.2mph /  6.7km/h 10.4mph /  16.7km/h 38.4% 0in /  0.0mm
15:24 55.6 °F /  13.1 °C 29.5 °F /  -1.4 °C 30in /  1016.2hPa ONO 2.9mph /  4.7km/h 10mph /  16.1km/h 36.8% 0in /  0.0mm
15:29 55.2 °F /  12.9 °C 29.1 °F /  -1.6 °C 30in /  1016.2hPa ONO 4.2mph /  6.8km/h 9mph /  14.5km/h 36.6% 0in /  0.0mm
15:34 55.2 °F /  12.9 °C 29.3 °F /  -1.5 °C 30in /  1016.3hPa ONO 5.2mph /  8.4km/h 8mph /  12.9km/h 36.8% 0in /  0.0mm
15:39 55.6 °F /  13.1 °C 29.7 °F /  -1.3 °C 30in /  1016.3hPa OSO 4.5mph /  7.2km/h 8.1mph /  13km/h 36.9% 0in /  0.0mm
15:44 55.9 °F /  13.3 °C 29.5 °F /  -1.4 °C 30in /  1016.3hPa SO 4mph /  6.5km/h 8.1mph /  13km/h 36.2% 0in /  0.0mm
15:49 56.1 °F /  13.4 °C 29.5 °F /  -1.4 °C 30in /  1016.3hPa SSO 4.4mph /  7.1km/h 8mph /  12.9km/h 36% 0in /  0.0mm
15:54 55.9 °F /  13.3 °C 29.5 °F /  -1.4 °C 30in /  1016.2hPa Este 4.7mph /  7.6km/h 7mph /  11.3km/h 36.1% 0in /  0.0mm
15:59 56.1 °F /  13.4 °C 29.7 °F /  -1.3 °C 30in /  1016.2hPa North 3.5mph /  5.7km/h 5mph /  8km/h 36% 0in /  0.0mm
16:04 56.5 °F /  13.6 °C 29.5 °F /  -1.4 °C 30in /  1016.3hPa NNE 2.9mph /  4.6km/h 5.9mph /  9.5km/h 35.5% 0in /  0.0mm
16:09 56.5 °F /  13.6 °C 29.3 °F /  -1.5 °C 30in /  1016.3hPa NNE 2.6mph /  4.2km/h 6mph /  9.7km/h 35.3% 0in /  0.0mm
16:14 56.1 °F /  13.4 °C 29.1 °F /  -1.6 °C 30in /  1016.3hPa North 2.4mph /  3.9km/h 5.9mph /  9.5km/h 35.2% 0in /  0.0mm
16:19 56.3 °F /  13.5 °C 28.9 °F /  -1.7 °C 30in /  1016.3hPa SE 2.4mph /  3.9km/h 6mph /  9.7km/h 35% 0in /  0.0mm
16:24 56.5 °F /  13.6 °C 29.1 °F /  -1.6 °C 30in /  1016.3hPa SSE 2.4mph /  3.9km/h 6.2mph /  10km/h 34.9% 0in /  0.0mm
16:29 56.8 °F /  13.8 °C 29.1 °F /  -1.6 °C 30in /  1016.3hPa ONO 2.4mph /  3.9km/h 6mph /  9.7km/h 34.6% 0in /  0.0mm
16:34 56.8 °F /  13.8 °C 29.3 °F /  -1.5 °C 30in /  1016.4hPa NNE 2.4mph /  3.9km/h 10.4mph /  16.7km/h 35% 0in /  0.0mm
16:39 56.3 °F /  13.5 °C 29.1 °F /  -1.6 °C 30in /  1016.4hPa NE 3.7mph /  5.9km/h 10mph /  16.1km/h 35.2% 0in /  0.0mm
16:44 56.1 °F /  13.4 °C 28.8 °F /  -1.8 °C 30in /  1016.4hPa NE 4.7mph /  7.6km/h 7mph /  11.3km/h 35% 0in /  0.0mm
16:49 55.9 °F /  13.3 °C 29.1 °F /  -1.6 °C 30in /  1016.5hPa NE 4.3mph /  6.9km/h 6.9mph /  11.1km/h 35.6% 0in /  0.0mm
16:54 55.8 °F /  13.2 °C 29.1 °F /  -1.6 °C 30in /  1016.5hPa NE 4mph /  6.5km/h 8.1mph /  13km/h 36% 0in /  0.0mm
16:59 55.4 °F /  13 °C 29.1 °F /  -1.6 °C 30in /  1016.5hPa NE 4.8mph /  7.7km/h 8.1mph /  13km/h 36.3% 0in /  0.0mm
17:04 55.4 °F /  13 °C 29.5 °F /  -1.4 °C 30in /  1016.6hPa NE 5.2mph /  8.4km/h 8mph /  12.9km/h 37% 0in /  0.0mm
17:09 55.2 °F /  12.9 °C 29.8 °F /  -1.2 °C 30in /  1016.6hPa NE 4.7mph /  7.6km/h 7mph /  11.3km/h 37.7% 0in /  0.0mm
17:14 55.2 °F /  12.9 °C 30 °F /  -1.1 °C 30in /  1016.6hPa NNE 4.3mph /  6.9km/h 6.9mph /  11.1km/h 38% 0in /  0.0mm
17:19 55.2 °F /  12.9 °C 29.8 °F /  -1.2 °C 30in /  1016.7hPa NNE 4.3mph /  6.9km/h 7mph /  11.3km/h 37.8% 0in /  0.0mm
17:24 55 °F /  12.8 °C 29.8 °F /  -1.2 °C 30in /  1016.7hPa NE 4.3mph /  6.9km/h 7.4mph /  11.9km/h 38% 0in /  0.0mm
17:29 55 °F /  12.8 °C 30.6 °F /  -0.8 °C 30in /  1016.7hPa NE 4.5mph /  7.3km/h 8.1mph /  13km/h 39.3% 0in /  0.0mm
17:34 54.9 °F /  12.7 °C 31.3 °F /  -0.4 °C 30in /  1016.8hPa NE 4.7mph /  7.6km/h 9.2mph /  14.8km/h 40.5% 0in /  0.0mm
17:39 54.5 °F /  12.5 °C 31.3 °F /  -0.4 °C 30in /  1016.8hPa NE 4.7mph /  7.6km/h 9mph /  14.5km/h 41% 0in /  0.0mm
17:44 54.3 °F /  12.4 °C 31.3 °F /  -0.4 °C 30in /  1016.8hPa NE 4.7mph /  7.6km/h 7mph /  11.3km/h 41.4% 0in /  0.0mm
17:49 54.1 °F /  12.3 °C 31.5 °F /  -0.3 °C 30in /  1016.9hPa NE 4.3mph /  6.9km/h 6.2mph /  10km/h 42% 0in /  0.0mm
17:54 54 °F /  12.2 °C 31.8 °F /  -0.1 °C 30in /  1016.9hPa NE 4mph /  6.5km/h 8.1mph /  13km/h 42.8% 0in /  0.0mm
17:59 53.8 °F /  12.1 °C 31.6 °F /  -0.2 °C 30in /  1016.9hPa NE 4.2mph /  6.8km/h 8mph /  12.9km/h 43% 0in /  0.0mm
18:04 53.2 °F /  11.8 °C 32 °F /  0 °C 30in /  1017.0hPa NE 4.3mph /  6.9km/h 12.7mph /  20.4km/h 44.4% 0in /  0.0mm
18:09 52.7 °F /  11.5 °C 32.7 °F /  0.4 °C 30in /  1017.0hPa NE 5.2mph /  8.4km/h 13mph /  20.9km/h 46.6% 0in /  0.0mm
18:14 52.2 °F /  11.2 °C 33.3 °F /  0.7 °C 30in /  1017.0hPa NE 5.9mph /  9.5km/h 9mph /  14.5km/h 48.6% 0in /  0.0mm
18:19 51.4 °F /  10.8 °C 33.6 °F /  0.9 °C 30in /  1017.2hPa ENE 5.5mph /  8.8km/h 9.2mph /  14.8km/h 50.2% 0in /  0.0mm
18:24 51.3 °F /  10.7 °C 33.8 °F /  1 °C 30in /  1017.2hPa ENE 5.2mph /  8.4km/h 11mph /  17.7km/h 51% 0in /  0.0mm
18:29 51.1 °F /  10.6 °C 34 °F /  1.1 °C 30in /  1017.2hPa NE 4.9mph /  7.9km/h 10mph /  16.1km/h 52% 0in /  0.0mm
18:34 50.7 °F /  10.4 °C 34 °F /  1.1 °C 30in /  1017.4hPa NE 4.7mph /  7.6km/h 8mph /  12.9km/h 52.3% 0in /  0.0mm
18:39 50.7 °F /  10.4 °C 34.2 °F /  1.2 °C 30in /  1017.4hPa NE 4.3mph /  6.9km/h 7mph /  11.3km/h 53% 0in /  0.0mm
18:44 50.5 °F /  10.3 °C 34 °F /  1.1 °C 30in /  1017.4hPa NE 4mph /  6.5km/h 6mph /  9.7km/h 53% 0in /  0.0mm
18:49 50.4 °F /  10.2 °C 34 °F /  1.1 °C 30.1in /  1017.6hPa NE 3.8mph /  6.1km/h 6.9mph /  11.1km/h 53% 0in /  0.0mm
18:54 50.4 °F /  10.2 °C 34 °F /  1.1 °C 30.1in /  1017.6hPa NE 3.6mph /  5.8km/h 7mph /  11.3km/h 53.3% 0in /  0.0mm
18:59 50.2 °F /  10.1 °C 34.2 °F /  1.2 °C 30.1in /  1017.6hPa NE 3.3mph /  5.3km/h 5mph /  8km/h 54% 0in /  0.0mm
19:04 49.8 °F /  9.9 °C 34 °F /  1.1 °C 30.1in /  1017.8hPa NE 3.1mph /  5km/h 5mph /  8km/h 54% 0in /  0.0mm
19:09 49.6 °F /  9.8 °C 34.2 °F /  1.2 °C 30.1in /  1017.8hPa NE 2.7mph /  4.3km/h 5mph /  8km/h 54.9% 0in /  0.0mm
19:14 49.5 °F /  9.7 °C 34.3 °F /  1.3 °C 30.1in /  1017.8hPa NE 2.4mph /  3.9km/h 4mph /  6.4km/h 55.7% 0in /  0.0mm
19:19 49.3 °F /  9.6 °C 34.3 °F /  1.3 °C 30.1in /  1017.9hPa NE 1.8mph /  2.9km/h 3mph /  4.8km/h 56% 0in /  0.0mm
19:24 49.1 °F /  9.5 °C 34.3 °F /  1.3 °C 30.1in /  1017.9hPa NE 1.4mph /  2.2km/h   56.8% 0in /  0.0mm
19:29 48.7 °F /  9.3 °C 34.3 °F /  1.3 °C 30.1in /  1017.9hPa NE 0.6mph /  0.9km/h   57.3% 0in /  0.0mm
19:34 48.6 °F /  9.2 °C 34.5 °F /  1.4 °C 30.1in /  1018.1hPa Calm     58% 0in /  0.0mm
19:39 48.6 °F /  9.2 °C 34.3 °F /  1.3 °C 30.1in /  1018.1hPa Calm   4.7mph /  7.6km/h 58% 0in /  0.0mm
19:44 48.4 °F /  9.1 °C 34.3 °F /  1.3 °C 30.1in /  1018.1hPa Calm   5mph /  8km/h 58% 0in /  0.0mm
19:49 48.4 °F /  9.1 °C 34.3 °F /  1.3 °C 30.1in /  1018.2hPa ONO 1.8mph /  2.9km/h 5mph /  8km/h 58% 0in /  0.0mm
19:54 48.4 °F /  9.1 °C 34.3 °F /  1.3 °C 30.1in /  1018.2hPa ONO 2.9mph /  4.6km/h 5mph /  8km/h 58% 0in /  0.0mm
19:59 48.4 °F /  9.1 °C 34.3 °F /  1.3 °C 30.1in /  1018.2hPa ONO 2.6mph /  4.2km/h 5mph /  8km/h 58% 0in /  0.0mm
20:04 48.4 °F /  9.1 °C 34.3 °F /  1.3 °C 30.1in /  1018.4hPa ONO 2.4mph /  3.9km/h 5mph /  8km/h 58% 0in /  0.0mm
20:09 48.4 °F /  9.1 °C 34.3 °F /  1.3 °C 30.1in /  1018.4hPa ONO 2.1mph /  3.3km/h 5mph /  8km/h 58% 0in /  0.0mm
20:14 48.4 °F /  9.1 °C 34 °F /  1.1 °C 30.1in /  1018.4hPa NNO 1.8mph /  2.9km/h 6.2mph /  10km/h 57.2% 0in /  0.0mm
20:19 48.6 °F /  9.2 °C 34 °F /  1.1 °C 30.1in /  1018.6hPa ONO 2.2mph /  3.5km/h 6mph /  9.7km/h 57% 0in /  0.0mm
20:24 48.4 °F /  9.1 °C 34.2 °F /  1.2 °C 30.1in /  1018.6hPa ONO 2.4mph /  3.9km/h 5mph /  8km/h 57.8% 0in /  0.0mm
20:29 48.2 °F /  9 °C 34.2 °F /  1.2 °C 30.1in /  1018.6hPa ONO 2.2mph /  3.5km/h 5mph /  8km/h 57.8% 0in /  0.0mm
20:34 48 °F /  8.9 °C 34 °F /  1.1 °C 30.1in /  1018.6hPa ONO 2mph /  3.2km/h 4mph /  6.4km/h 58% 0in /  0.0mm
20:39 48 °F /  8.9 °C 34 °F /  1.1 °C 30.1in /  1018.6hPa ONO 0.8mph /  1.3km/h 1mph /  1.6km/h 58% 0in /  0.0mm
20:44 47.8 °F /  8.8 °C 34 °F /  1.1 °C 30.1in /  1018.6hPa Calm     58.2% 0in /  0.0mm
20:49 47.8 °F /  8.8 °C 34.2 °F /  1.2 °C 30.1in /  1018.8hPa Calm     59% 0in /  0.0mm
20:54 47.7 °F /  8.7 °C 34 °F /  1.1 °C 30.1in /  1018.8hPa Calm     59% 0in /  0.0mm
20:59 47.5 °F /  8.6 °C 34.3 °F /  1.3 °C 30.1in /  1018.8hPa Calm     59.9% 0in /  0.0mm
21:04 47.1 °F /  8.4 °C 34 °F /  1.1 °C 30.1in /  1019.0hPa Calm   3.5mph /  5.6km/h 60% 0in /  0.0mm
21:09 46.9 °F /  8.3 °C 34 °F /  1.1 °C 30.1in /  1019.0hPa Calm   3mph /  4.8km/h 60.5% 0in /  0.0mm
21:14 46.8 °F /  8.2 °C 34 °F /  1.1 °C 30.1in /  1019.0hPa Calm   2.4mph /  3.9km/h 61% 0in /  0.0mm
21:19 46.6 °F /  8.1 °C 34 °F /  1.1 °C 30.1in /  1019.2hPa ONO 0.8mph /  1.3km/h 3.5mph /  5.6km/h 61.4% 0in /  0.0mm
21:24 46.2 °F /  7.9 °C 34 °F /  1.1 °C 30.1in /  1019.2hPa ONO 1.4mph /  2.2km/h 4.6mph /  7.4km/h 62% 0in /  0.0mm
21:29 46 °F /  7.8 °C 33.6 °F /  0.9 °C 30.1in /  1019.2hPa ONO 2mph /  3.2km/h 5mph /  8km/h 62% 0in /  0.0mm
21:34 45.7 °F /  7.6 °C 33.6 °F /  0.9 °C 30.1in /  1019.3hPa ONO 2.4mph /  3.9km/h 5.2mph /  8.4km/h 62.5% 0in /  0.0mm
21:39 45.3 °F /  7.4 °C 33.4 °F /  0.8 °C 30.1in /  1019.3hPa ONO 2.7mph /  4.3km/h 5mph /  8km/h 63% 0in /  0.0mm
21:44 45 °F /  7.2 °C 33.4 °F /  0.8 °C 30.1in /  1019.3hPa ONO 2.9mph /  4.7km/h 5mph /  8km/h 63.8% 0in /  0.0mm
21:49 44.8 °F /  7.1 °C 33.6 °F /  0.9 °C 30.1in /  1019.6hPa ONO 2.4mph /  3.8km/h 5mph /  8km/h 64.6% 0in /  0.0mm
21:54 44.6 °F /  7 °C 34 °F /  1.1 °C 30.1in /  1019.6hPa ONO 2mph /  3.2km/h 5mph /  8km/h 65.7% 0in /  0.0mm
21:59 44.8 °F /  7.1 °C 34 °F /  1.1 °C 30.1in /  1019.6hPa ONO 2.2mph /  3.6km/h 5mph /  8km/h 65.5% 0in /  0.0mm
22:04 45 °F /  7.2 °C 34.3 °F /  1.3 °C 30.1in /  1019.6hPa ONO 2.4mph /  3.9km/h 4mph /  6.4km/h 66% 0in /  0.0mm
22:09 45 °F /  7.2 °C 34.3 °F /  1.3 °C 30.1in /  1019.6hPa ONO 1mph /  1.6km/h 3.1mph /  5km/h 66% 0in /  0.0mm
22:14 45 °F /  7.2 °C 34 °F /  1.1 °C 30.1in /  1019.6hPa Calm   3.5mph /  5.6km/h 65% 0in /  0.0mm
22:19 44.8 °F /  7.1 °C 33.8 °F /  1 °C 30.1in /  1019.8hPa SE 1.2mph /  1.9km/h 5.9mph /  9.5km/h 65% 0in /  0.0mm
22:24 44.2 °F /  6.8 °C 33.6 °F /  0.9 °C 30.1in /  1019.8hPa SE 2mph /  3.2km/h 6.2mph /  10km/h 65.8% 0in /  0.0mm
22:29 43.9 °F /  6.6 °C 33.6 °F /  0.9 °C 30.1in /  1019.8hPa ESE 2.6mph /  4.2km/h 6mph /  9.7km/h 66.8% 0in /  0.0mm
22:34 43.5 °F /  6.4 °C 33.4 °F /  0.8 °C 30.1in /  1019.9hPa ESE 3.1mph /  5km/h 5mph /  8km/h 67% 0in /  0.0mm
22:39 43.3 °F /  6.3 °C 33.3 °F /  0.7 °C 30.1in /  1019.9hPa ESE 2.5mph /  4km/h 5mph /  8km/h 67.5% 0in /  0.0mm
22:44 43.2 °F /  6.2 °C 33.3 °F /  0.7 °C 30.1in /  1019.9hPa ESE 2mph /  3.2km/h 4.6mph /  7.4km/h 68% 0in /  0.0mm
22:49 43.2 °F /  6.2 °C 33.3 °F /  0.7 °C 30.1in /  1019.9hPa ESE 2mph /  3.2km/h 5.2mph /  8.4km/h 68% 0in /  0.0mm
22:54 43.2 °F /  6.2 °C 33.3 °F /  0.7 °C 30.1in /  1019.9hPa SE 2mph /  3.2km/h 6.9mph /  11.1km/h 68% 0in /  0.0mm
22:59 42.8 °F /  6 °C 32.9 °F /  0.5 °C 30.1in /  1019.9hPa SE 3mph /  4.8km/h 7mph /  11.3km/h 68% 0in /  0.0mm
23:04 42.4 °F /  5.8 °C 32.9 °F /  0.5 °C 30.1in /  1020.2hPa Sur 3.6mph /  5.8km/h 6mph /  9.7km/h 68.5% 0in /  0.0mm
23:09 42.4 °F /  5.8 °C 33.1 °F /  0.6 °C 30.1in /  1020.2hPa SO 3.6mph /  5.8km/h 6mph /  9.7km/h 69% 0in /  0.0mm
23:14 42.8 °F /  6 °C 32.9 °F /  0.5 °C 30.1in /  1020.2hPa SO 3.6mph /  5.8km/h 5mph /  8km/h 68% 0in /  0.0mm
23:19 43 °F /  6.1 °C 33.1 °F /  0.6 °C 30.1in /  1020.2hPa SO 3.2mph /  5.1km/h 5mph /  8km/h 68% 0in /  0.0mm
23:24 43 °F /  6.1 °C 32.9 °F /  0.5 °C 30.1in /  1020.1hPa SO 2.9mph /  4.7km/h 4mph /  6.4km/h 67.4% 0in /  0.0mm
23:29 43 °F /  6.1 °C 33.1 °F /  0.6 °C 30.1in /  1020.1hPa SO 2.4mph /  3.8km/h 4mph /  6.4km/h 68% 0in /  0.0mm
23:34 42.8 °F /  6 °C 32.9 °F /  0.5 °C 30.1in /  1020.2hPa SSE 2mph /  3.2km/h 6.2mph /  10km/h 68% 0in /  0.0mm
23:39 42.4 °F /  5.8 °C 32.4 °F /  0.2 °C 30.1in /  1020.2hPa SE 2.6mph /  4.2km/h 6.9mph /  11.1km/h 67.6% 0in /  0.0mm
23:44 41.9 °F /  5.5 °C 32.2 °F /  0.1 °C 30.1in /  1020.2hPa Sur 3.1mph /  5km/h 7mph /  11.3km/h 68% 0in /  0.0mm
23:49 41.9 °F /  5.5 °C 32.2 °F /  0.1 °C 30.1in /  1020.2hPa SO 3.8mph /  6.1km/h 7mph /  11.3km/h 68% 0in /  0.0mm
23:54 42.1 °F /  5.6 °C 32.4 °F /  0.2 °C 30.1in /  1020.2hPa SO 4.3mph /  6.9km/h 7mph /  11.3km/h 68% 0in /  0.0mm
23:59 42.3 °F /  5.7 °C 32.4 °F /  0.2 °C 30.1in /  1020.2hPa SSO 3.9mph /  6.2km/h 6mph /  9.7km/h 68% 0in /  0.0mm
Murcia-Puente Tocinos, Espa?a
Compliments of Weather Underground - 3.25 mb

La estación de MeteoMurcia.com, publica sus datos en los siguientes proyectos:

Weather Underground PWS IMURCIAP2 Meteoclimatic www.awekas.at

W3Counter
Web Analytics